createdAt,value
2023-01-18T00:01:31.220Z,1.93
2023-01-18T00:04:01.518Z,1.98
2023-01-18T00:06:31.785Z,2.02
2023-01-18T00:09:02.051Z,2.04
2023-01-18T00:11:32.445Z,2.05
2023-01-18T00:14:03.149Z,2.04
2023-01-18T00:16:36.383Z,2.06
2023-01-18T00:19:06.995Z,2.05
2023-01-18T00:21:37.389Z,2.06
2023-01-18T00:24:11.187Z,2.10
2023-01-18T00:26:41.493Z,2.14
2023-01-18T00:29:12.988Z,2.17
2023-01-18T00:31:45.964Z,2.17
2023-01-18T00:34:16.238Z,2.16
2023-01-18T00:36:46.514Z,2.20
2023-01-18T00:39:17.199Z,2.26
2023-01-18T00:41:59.880Z,2.29
2023-01-18T00:44:30.099Z,2.29
2023-01-18T00:47:03.091Z,2.28
2023-01-18T00:49:33.423Z,2.24
2023-01-18T00:52:03.700Z,2.14
2023-01-18T00:54:33.993Z,2.03
2023-01-18T00:57:04.270Z,1.93
2023-01-18T00:59:34.584Z,1.86
2023-01-18T01:02:07.734Z,1.65
2023-01-18T01:04:50.443Z,1.77
2023-01-18T01:07:20.709Z,1.98
2023-01-18T01:09:51.016Z,2.12
2023-01-18T01:12:33.714Z,2.22
2023-01-18T01:15:16.374Z,2.24
2023-01-18T01:18:01.668Z,2.33
2023-01-18T01:20:44.503Z,2.37
2023-01-18T01:23:29.820Z,2.42
2023-01-18T01:26:08.109Z,2.42
2023-01-18T01:28:39.104Z,2.43
2023-01-18T01:31:12.107Z,2.43
2023-01-18T01:33:45.716Z,2.43
2023-01-18T01:36:18.035Z,2.44
2023-01-18T01:38:48.379Z,2.50
2023-01-18T01:41:25.431Z,2.56
2023-01-18T01:43:58.017Z,2.63
2023-01-18T01:46:36.959Z,2.62
2023-01-18T01:49:14.634Z,2.59
2023-01-18T01:51:48.086Z,2.62
2023-01-18T01:54:25.449Z,2.59
2023-01-18T01:57:00.758Z,2.60
2023-01-18T01:59:31.184Z,2.62
2023-01-18T02:02:01.594Z,2.53
2023-01-18T02:04:35.424Z,2.55
2023-01-18T02:07:05.798Z,2.63
2023-01-18T02:09:36.166Z,2.69
2023-01-18T02:12:07.345Z,2.73
2023-01-18T02:14:37.734Z,2.75
2023-01-18T02:17:31.044Z,2.76
2023-01-18T02:20:41.937Z,2.80
2023-01-18T02:23:35.657Z,2.81
2023-01-18T02:26:42.423Z,2.88
2023-01-18T02:29:19.340Z,2.79
2023-01-18T02:32:06.667Z,2.81
2023-01-18T02:34:44.098Z,2.91
2023-01-18T02:37:23.916Z,2.91
2023-01-18T02:40:08.189Z,2.93
2023-01-18T02:42:53.855Z,2.92
2023-01-18T02:45:46.507Z,2.92
2023-01-18T02:48:18.155Z,2.88
2023-01-18T02:50:48.448Z,2.95
2023-01-18T02:53:20.243Z,2.97
2023-01-18T02:55:56.611Z,3.02
2023-01-18T02:58:31.900Z,3.03
2023-01-18T03:01:10.851Z,3.02
2023-01-18T03:03:44.901Z,3.01
2023-01-18T03:06:15.642Z,3.04
2023-01-18T03:08:51.079Z,3.05
2023-01-18T03:11:30.324Z,3.02
2023-01-18T03:14:13.016Z,3.04
2023-01-18T03:17:00.760Z,3.07
2023-01-18T03:19:55.621Z,3.10
2023-01-18T03:22:49.402Z,3.11
2023-01-18T03:25:22.628Z,3.09
2023-01-18T03:28:08.561Z,3.11
2023-01-18T03:30:52.188Z,3.14
2023-01-18T03:33:40.100Z,3.08
2023-01-18T03:36:17.717Z,3.05
2023-01-18T03:38:53.629Z,3.01
2023-01-18T03:41:26.126Z,2.98
2023-01-18T03:43:59.666Z,2.99
2023-01-18T03:46:34.491Z,3.01
2023-01-18T03:49:07.961Z,3.01
2023-01-18T03:51:52.444Z,3.04
2023-01-18T03:54:33.418Z,3.02
2023-01-18T03:57:10.589Z,3.05
2023-01-18T03:59:42.431Z,3.09
2023-01-18T04:02:13.838Z,3.12
2023-01-18T04:04:46.782Z,3.15
2023-01-18T04:07:17.156Z,3.17
2023-01-18T04:09:47.490Z,3.17
2023-01-18T04:12:17.813Z,3.12
2023-01-18T04:14:48.168Z,3.13
2023-01-18T04:17:19.140Z,3.05
2023-01-18T04:19:52.148Z,3.06
2023-01-18T04:22:22.942Z,3.07
2023-01-18T04:24:53.282Z,3.05
2023-01-18T04:27:25.216Z,3.06
2023-01-18T04:29:55.658Z,3.01
2023-01-18T04:32:25.953Z,3.03
2023-01-18T04:34:58.884Z,3.08
2023-01-18T04:37:31.608Z,3.12
2023-01-18T04:40:01.866Z,3.10
2023-01-18T04:42:32.357Z,3.15
2023-01-18T04:45:02.834Z,3.14
2023-01-18T04:47:33.063Z,3.12
2023-01-18T04:50:07.814Z,3.05
2023-01-18T04:52:38.123Z,3.00
2023-01-18T04:55:11.796Z,3.00
2023-01-18T04:57:42.156Z,3.04
2023-01-18T05:00:15.077Z,3.03
2023-01-18T05:02:45.415Z,3.03
2023-01-18T05:05:18.625Z,3.01
2023-01-18T05:07:48.973Z,2.99
2023-01-18T05:10:20.014Z,2.97
2023-01-18T05:12:50.338Z,2.97
2023-01-18T05:15:20.964Z,2.97
2023-01-18T05:17:51.351Z,2.84
2023-01-18T05:20:24.344Z,2.84
2023-01-18T05:22:54.655Z,2.84
2023-01-18T05:25:24.991Z,2.86
2023-01-18T05:27:55.320Z,2.87
2023-01-18T05:30:25.612Z,2.89
2023-01-18T05:32:55.907Z,2.95
2023-01-18T05:35:28.901Z,2.92
2023-01-18T05:37:59.221Z,2.91
2023-01-18T05:40:29.654Z,2.92
2023-01-18T05:43:00.326Z,2.86
2023-01-18T05:45:30.954Z,2.91
2023-01-18T05:48:13.228Z,2.92
2023-01-18T05:50:48.617Z,2.92
2023-01-18T05:53:21.101Z,2.88
2023-01-18T05:55:58.176Z,2.84
2023-01-18T05:58:29.282Z,2.87
2023-01-18T06:00:59.919Z,2.88
2023-01-18T06:03:30.275Z,2.89
2023-01-18T06:06:03.241Z,2.90
2023-01-18T06:08:33.992Z,2.89
2023-01-18T06:11:04.596Z,2.92
2023-01-18T06:13:35.579Z,2.88
2023-01-18T06:16:07.436Z,2.88
2023-01-18T06:18:39.649Z,2.87
2023-01-18T06:21:12.583Z,2.88
2023-01-18T06:23:42.866Z,2.88
2023-01-18T06:26:13.193Z,2.91
2023-01-18T06:28:43.512Z,2.92
2023-01-18T06:31:13.817Z,2.87
2023-01-18T06:33:44.028Z,2.87
2023-01-18T06:36:17.028Z,2.88
2023-01-18T06:38:47.347Z,2.85
2023-01-18T06:41:18.180Z,2.87
2023-01-18T06:43:48.501Z,2.80
2023-01-18T06:46:19.806Z,2.75
2023-01-18T06:48:50.265Z,2.74
2023-01-18T06:51:23.517Z,2.76
2023-01-18T06:53:53.868Z,2.78
2023-01-18T06:56:25.206Z,2.76
2023-01-18T06:58:57.414Z,2.77
2023-01-18T07:01:28.411Z,2.77
2023-01-18T07:03:58.911Z,2.79
2023-01-18T07:06:32.283Z,2.81
2023-01-18T07:09:02.632Z,2.76
2023-01-18T07:11:32.947Z,2.78
2023-01-18T07:14:03.282Z,2.80
2023-01-18T07:16:33.600Z,2.78
2023-01-18T07:19:04.730Z,2.80
2023-01-18T07:21:37.715Z,2.79
2023-01-18T07:24:09.490Z,2.79
2023-01-18T07:26:40.039Z,2.83
2023-01-18T07:29:10.386Z,2.82
2023-01-18T07:31:41.143Z,2.81
2023-01-18T07:34:13.512Z,2.83
2023-01-18T07:36:47.198Z,2.82
2023-01-18T07:39:17.501Z,2.81
2023-01-18T07:41:47.745Z,2.84
2023-01-18T07:44:21.369Z,2.87
2023-01-18T07:46:51.672Z,2.88
2023-01-18T07:49:22.007Z,2.94
2023-01-18T07:51:55.293Z,2.88
2023-01-18T07:54:26.308Z,2.82
2023-01-18T07:56:56.640Z,2.81
2023-01-18T07:59:27.956Z,2.84
2023-01-18T08:01:58.246Z,2.91
2023-01-18T08:04:28.591Z,2.87
2023-01-18T08:07:03.465Z,2.90
2023-01-18T08:09:34.075Z,2.89
2023-01-18T08:12:06.796Z,2.93
2023-01-18T08:14:37.179Z,2.93
2023-01-18T08:17:08.141Z,2.79
2023-01-18T08:19:38.894Z,2.73
2023-01-18T08:22:11.996Z,2.73
2023-01-18T08:24:42.310Z,2.84
2023-01-18T08:27:12.597Z,2.86
2023-01-18T08:29:42.884Z,2.88
2023-01-18T08:32:13.216Z,3.01
2023-01-18T08:34:43.772Z,3.02
2023-01-18T08:37:17.378Z,3.06
2023-01-18T08:39:47.876Z,3.05
2023-01-18T08:42:21.186Z,3.06
2023-01-18T08:44:51.918Z,3.08
2023-01-18T08:47:22.326Z,3.09
2023-01-18T08:49:52.633Z,3.05
2023-01-18T08:52:25.766Z,3.09
2023-01-18T08:54:56.058Z,3.12
2023-01-18T08:57:26.566Z,3.14
2023-01-18T08:59:57.131Z,3.12
2023-01-18T09:02:28.688Z,3.10
2023-01-18T09:04:59.226Z,3.17
2023-01-18T09:07:32.252Z,3.30
2023-01-18T09:10:02.608Z,3.36
2023-01-18T09:12:34.875Z,3.37
2023-01-18T09:15:05.162Z,3.40
2023-01-18T09:17:35.538Z,3.42
2023-01-18T09:20:09.744Z,3.45
2023-01-18T09:22:43.013Z,3.46
2023-01-18T09:25:14.087Z,3.47
2023-01-18T09:27:45.158Z,3.47
2023-01-18T09:30:16.889Z,3.50
2023-01-18T09:32:47.842Z,3.51
2023-01-18T09:35:18.737Z,3.53
2023-01-18T09:37:51.929Z,3.52
2023-01-18T09:40:25.405Z,3.57
2023-01-18T09:42:56.821Z,3.58
2023-01-18T09:45:33.402Z,3.48
2023-01-18T09:48:10.782Z,3.46
2023-01-18T09:50:45.509Z,3.47
2023-01-18T09:53:31.932Z,3.48
2023-01-18T09:56:09.807Z,3.51
2023-01-18T09:58:54.721Z,3.51
2023-01-18T10:01:30.098Z,3.52
2023-01-18T10:04:04.163Z,3.50
2023-01-18T10:06:45.256Z,3.58
2023-01-18T10:09:22.382Z,3.57
2023-01-18T10:12:00.357Z,3.60
2023-01-18T10:14:48.023Z,3.64
2023-01-18T10:17:24.142Z,3.69
2023-01-18T10:19:54.940Z,3.69
2023-01-18T10:22:29.499Z,3.65
2023-01-18T10:25:07.647Z,3.61
2023-01-18T10:28:25.296Z,3.57
2023-01-18T10:31:22.800Z,3.56
2023-01-18T10:33:57.815Z,3.48
2023-01-18T10:36:34.267Z,3.46
2023-01-18T10:39:25.346Z,3.47
2023-01-18T10:42:06.125Z,3.47
2023-01-18T10:44:37.150Z,3.47
2023-01-18T10:47:07.663Z,3.47
2023-01-18T10:49:44.010Z,3.50
2023-01-18T10:52:31.825Z,3.44
2023-01-18T10:55:07.520Z,3.31
2023-01-18T10:57:46.139Z,3.25
2023-01-18T11:00:27.829Z,3.28
2023-01-18T11:03:01.014Z,3.22
2023-01-18T11:05:35.065Z,3.22
2023-01-18T11:08:17.303Z,3.23
2023-01-18T11:10:47.604Z,3.24
2023-01-18T11:13:45.215Z,3.30
2023-01-18T11:16:19.303Z,3.29
2023-01-18T11:19:04.542Z,3.32
2023-01-18T11:21:51.669Z,3.34
2023-01-18T11:24:30.013Z,3.33
2023-01-18T11:27:03.723Z,3.33
2023-01-18T11:29:39.772Z,3.30
2023-01-18T11:32:26.720Z,3.22
2023-01-18T11:35:00.080Z,3.23
2023-01-18T11:37:37.250Z,3.28
2023-01-18T11:40:29.621Z,3.25
2023-01-18T11:43:04.426Z,3.21
2023-01-18T11:45:45.550Z,3.19
2023-01-18T11:48:31.387Z,3.14
2023-01-18T11:51:08.817Z,3.12
2023-01-18T11:53:49.542Z,3.13
2023-01-18T11:56:33.638Z,3.11
2023-01-18T11:59:05.598Z,3.09
2023-01-18T12:02:17.265Z,3.05
2023-01-18T12:05:07.890Z,3.03
2023-01-18T12:07:51.217Z,3.04
2023-01-18T12:10:25.958Z,3.10
2023-01-18T12:13:25.449Z,3.16
2023-01-18T12:16:11.254Z,3.14
2023-01-18T12:19:26.134Z,3.12
2023-01-18T12:22:30.700Z,3.08
2023-01-18T12:25:20.950Z,3.10
2023-01-18T12:28:04.984Z,3.15
2023-01-18T12:30:52.434Z,3.17
2023-01-18T12:33:43.825Z,3.13
2023-01-18T12:36:52.379Z,3.03
2023-01-18T12:39:50.593Z,3.02
2023-01-18T12:42:36.580Z,3.06
2023-01-18T12:45:21.144Z,3.05
2023-01-18T12:48:08.470Z,3.02
2023-01-18T12:50:42.635Z,3.02
2023-01-18T12:53:21.898Z,2.99
2023-01-18T12:55:59.998Z,3.02
2023-01-18T12:58:30.652Z,2.96
2023-01-18T13:01:05.923Z,2.89
2023-01-18T13:03:45.250Z,2.90
2023-01-18T13:06:17.640Z,2.96
2023-01-18T13:08:56.522Z,2.98
2023-01-18T13:11:30.455Z,2.98
2023-01-18T13:14:10.773Z,3.03
2023-01-18T13:16:53.268Z,2.98
2023-01-18T13:19:29.574Z,2.96
2023-01-18T13:22:10.382Z,2.94
2023-01-18T13:25:09.696Z,2.82
2023-01-18T13:27:40.473Z,2.76
2023-01-18T13:30:19.868Z,2.79
2023-01-18T13:32:50.196Z,2.81
2023-01-18T13:35:25.994Z,2.80
2023-01-18T13:37:59.299Z,2.84
2023-01-18T13:40:45.584Z,2.82
2023-01-18T13:43:36.569Z,2.84
2023-01-18T13:46:23.461Z,2.85
2023-01-18T13:48:57.553Z,2.88
2023-01-18T13:51:58.861Z,2.89
2023-01-18T13:55:05.665Z,2.97
2023-01-18T13:57:39.187Z,2.93
2023-01-18T14:00:25.854Z,2.97
2023-01-18T14:02:58.280Z,3.00
2023-01-18T14:05:39.460Z,2.97
2023-01-18T14:08:13.542Z,2.96
2023-01-18T14:10:53.127Z,2.98
2023-01-18T14:14:04.966Z,2.99
2023-01-18T14:16:38.342Z,3.00
2023-01-18T14:19:19.995Z,3.03
2023-01-18T14:22:11.313Z,2.95
2023-01-18T14:25:12.935Z,2.96
2023-01-18T14:27:45.011Z,2.98
2023-01-18T14:30:28.555Z,2.96
2023-01-18T14:33:04.685Z,2.99
2023-01-18T14:35:35.145Z,3.06
2023-01-18T14:38:18.013Z,3.05
2023-01-18T14:40:51.442Z,3.06
2023-01-18T14:43:28.981Z,3.05
2023-01-18T14:46:05.717Z,3.04
2023-01-18T14:48:38.920Z,3.03
2023-01-18T14:51:09.717Z,3.02
2023-01-18T14:53:48.551Z,3.02
2023-01-18T14:56:23.022Z,2.94
2023-01-18T14:58:59.276Z,2.96
2023-01-18T15:01:36.316Z,2.95
2023-01-18T15:04:18.940Z,2.89
2023-01-18T15:06:52.106Z,2.89
2023-01-18T15:09:27.994Z,2.81
2023-01-18T15:12:05.657Z,2.84
2023-01-18T15:14:39.949Z,2.86
2023-01-18T15:17:21.670Z,2.89
2023-01-18T15:19:55.803Z,2.89
2023-01-18T15:22:32.454Z,2.89
2023-01-18T15:25:03.630Z,2.90
2023-01-18T15:27:35.761Z,2.87
2023-01-18T15:30:15.386Z,2.88
2023-01-18T15:32:50.466Z,2.89
2023-01-18T15:35:21.199Z,2.92
2023-01-18T15:37:51.779Z,2.86
2023-01-18T15:40:29.831Z,2.86
2023-01-18T15:43:09.256Z,2.85
2023-01-18T15:45:43.899Z,2.84
2023-01-18T15:48:23.288Z,2.88
2023-01-18T15:50:56.831Z,2.85
2023-01-18T15:53:33.973Z,2.88
2023-01-18T15:56:06.606Z,2.91
2023-01-18T15:58:40.189Z,2.91
2023-01-18T16:01:20.419Z,2.94
2023-01-18T16:04:04.578Z,2.88
2023-01-18T16:06:37.553Z,2.92
2023-01-18T16:09:19.235Z,2.94
2023-01-18T16:11:52.713Z,2.93
2023-01-18T16:14:35.260Z,2.91
2023-01-18T16:17:09.700Z,2.86
2023-01-18T16:19:45.966Z,2.87
2023-01-18T16:22:23.995Z,2.86
2023-01-18T16:24:57.887Z,2.84
2023-01-18T16:27:31.967Z,2.81
2023-01-18T16:30:05.541Z,2.76
2023-01-18T16:32:39.143Z,2.80
2023-01-18T16:35:20.202Z,2.79
2023-01-18T16:37:52.146Z,2.75
2023-01-18T16:40:25.932Z,2.77
2023-01-18T16:43:03.402Z,2.78
2023-01-18T16:45:37.891Z,2.72
2023-01-18T16:48:09.425Z,2.71
2023-01-18T16:50:42.372Z,2.65
2023-01-18T16:53:12.804Z,2.64
2023-01-18T16:55:44.235Z,2.66
2023-01-18T16:58:16.305Z,2.65
2023-01-18T17:00:55.252Z,2.67
2023-01-18T17:03:26.144Z,2.67
2023-01-18T17:05:59.141Z,2.63
2023-01-18T17:08:29.485Z,2.59
2023-01-18T17:11:00.119Z,2.59
2023-01-18T17:13:30.808Z,2.54
2023-01-18T17:16:01.158Z,2.50
2023-01-18T17:18:31.501Z,2.49
2023-01-18T17:21:04.407Z,2.47
2023-01-18T17:23:34.769Z,2.36
2023-01-18T17:26:05.321Z,2.38
2023-01-18T17:28:35.824Z,2.35
2023-01-18T17:31:06.319Z,2.33
2023-01-18T17:33:39.279Z,2.24
2023-01-18T17:36:12.835Z,2.30
2023-01-18T17:38:43.449Z,2.32
2023-01-18T17:41:26.706Z,2.33
2023-01-18T17:43:57.654Z,2.31
2023-01-18T17:46:28.302Z,2.33
2023-01-18T17:48:59.125Z,2.35
2023-01-18T17:51:35.485Z,2.35
2023-01-18T17:54:13.150Z,2.31
2023-01-18T17:56:50.796Z,2.24
2023-01-18T17:59:21.108Z,2.22
2023-01-18T18:01:51.633Z,2.23
2023-01-18T18:04:22.146Z,2.24
2023-01-18T18:06:58.487Z,2.23
2023-01-18T18:09:29.109Z,2.20
2023-01-18T18:12:00.212Z,2.18
2023-01-18T18:14:30.809Z,2.15
2023-01-18T18:17:01.209Z,2.11
2023-01-18T18:19:32.475Z,2.13
2023-01-18T18:22:06.156Z,2.15
2023-01-18T18:24:36.412Z,2.13
2023-01-18T18:27:06.969Z,2.12
2023-01-18T18:29:37.294Z,2.13
2023-01-18T18:32:09.041Z,2.15
2023-01-18T18:34:40.209Z,2.14
2023-01-18T18:37:15.263Z,2.14
2023-01-18T18:39:45.652Z,2.13
2023-01-18T18:42:15.986Z,2.17
2023-01-18T18:44:46.707Z,2.18
2023-01-18T18:47:17.251Z,2.16
2023-01-18T18:49:48.037Z,2.20
2023-01-18T18:52:21.027Z,2.15
2023-01-18T18:54:51.365Z,2.17
2023-01-18T18:57:21.672Z,2.11
2023-01-18T18:59:51.931Z,2.11
2023-01-18T19:02:22.229Z,2.05
2023-01-18T19:04:52.774Z,2.08
2023-01-18T19:07:25.801Z,2.09
2023-01-18T19:09:56.164Z,2.12
2023-01-18T19:12:26.565Z,2.15
2023-01-18T19:14:56.831Z,2.20
2023-01-18T19:17:31.512Z,2.18
2023-01-18T19:20:02.388Z,2.10
2023-01-18T19:22:35.373Z,2.03
2023-01-18T19:25:05.711Z,2.04
2023-01-18T19:27:35.935Z,2.11
2023-01-18T19:30:12.980Z,2.12
2023-01-18T19:32:43.376Z,2.13
2023-01-18T19:35:13.844Z,2.14
2023-01-18T19:37:47.752Z,2.13
2023-01-18T19:40:20.102Z,2.14
2023-01-18T19:42:55.936Z,2.12
2023-01-18T19:45:28.511Z,2.23
2023-01-18T19:48:00.720Z,2.24
2023-01-18T19:50:32.832Z,2.30
2023-01-18T19:53:06.255Z,2.24
2023-01-18T19:55:37.262Z,2.18
2023-01-18T19:58:07.680Z,2.10
2023-01-18T20:00:41.435Z,2.09
2023-01-18T20:03:16.367Z,2.02
2023-01-18T20:05:47.436Z,2.06
2023-01-18T20:08:20.404Z,1.91
2023-01-18T20:10:52.860Z,1.86
2023-01-18T20:13:24.495Z,1.95
2023-01-18T20:15:54.946Z,1.89
2023-01-18T20:18:25.359Z,1.83
2023-01-18T20:20:57.067Z,1.75
2023-01-18T20:23:30.984Z,1.63
2023-01-18T20:26:01.475Z,1.56
2023-01-18T20:28:31.962Z,1.48
2023-01-18T20:31:03.623Z,1.53
2023-01-18T20:33:35.474Z,1.37
2023-01-18T20:36:05.964Z,1.42
2023-01-18T20:38:39.278Z,1.45
2023-01-18T20:41:09.807Z,1.41
2023-01-18T20:43:41.329Z,1.38
2023-01-18T20:46:13.577Z,1.46
2023-01-18T20:48:43.912Z,1.47
2023-01-18T20:51:14.415Z,1.27
2023-01-18T20:53:47.481Z,1.15
2023-01-18T20:56:28.892Z,1.14
2023-01-18T20:59:00.261Z,1.18
2023-01-18T21:01:33.080Z,1.23
2023-01-18T21:04:05.643Z,1.31
2023-01-18T21:06:36.095Z,1.33
2023-01-18T21:09:09.110Z,1.27
2023-01-18T21:11:39.455Z,1.35
2023-01-18T21:14:10.129Z,1.43
2023-01-18T21:16:40.609Z,1.54
2023-01-18T21:19:11.028Z,1.55
2023-01-18T21:21:41.635Z,1.57
2023-01-18T21:24:14.752Z,1.58
2023-01-18T21:26:45.053Z,1.54
2023-01-18T21:29:15.390Z,1.55
2023-01-18T21:31:45.742Z,1.53
2023-01-18T21:34:16.167Z,1.49
2023-01-18T21:36:46.546Z,1.49
2023-01-18T21:39:25.340Z,1.43
2023-01-18T21:42:08.192Z,1.11
2023-01-18T21:44:50.879Z,0.86
2023-01-18T21:47:21.139Z,0.79
2023-01-18T21:50:19.063Z,0.93
2023-01-18T21:53:01.654Z,0.97
2023-01-18T21:55:34.588Z,1.01
2023-01-18T21:58:17.279Z,0.92
2023-01-18T22:00:47.747Z,0.81
2023-01-18T22:03:18.658Z,0.63
2023-01-18T22:05:49.153Z,0.48
2023-01-18T22:08:19.589Z,0.47
2023-01-18T22:10:52.550Z,0.48
2023-01-18T22:13:22.934Z,0.52
2023-01-18T22:15:53.356Z,0.51
2023-01-18T22:18:23.708Z,0.59
2023-01-18T22:21:00.101Z,0.64
2023-01-18T22:23:30.485Z,0.59
2023-01-18T22:26:03.563Z,0.54
2023-01-18T22:28:33.907Z,0.44
2023-01-18T22:31:06.873Z,0.35
2023-01-18T22:33:37.424Z,0.29
2023-01-18T22:36:08.899Z,0.17
2023-01-18T22:38:41.230Z,0.15
2023-01-18T22:41:16.626Z,0.18
2023-01-18T22:43:48.397Z,0.18
2023-01-18T22:46:20.767Z,0.11
2023-01-18T22:48:51.864Z,-0.09
2023-01-18T22:51:24.175Z,-0.27
2023-01-18T22:53:56.419Z,-0.30
2023-01-18T22:56:29.349Z,-0.36
2023-01-18T22:59:00.607Z,-0.48
2023-01-18T23:01:32.329Z,-0.55
2023-01-18T23:04:04.032Z,-0.56
2023-01-18T23:06:42.354Z,-0.55
2023-01-18T23:09:14.485Z,-0.49
2023-01-18T23:11:49.050Z,-0.45
2023-01-18T23:14:31.678Z,-0.37
2023-01-18T23:17:14.353Z,-0.29
2023-01-18T23:19:44.732Z,-0.29
2023-01-18T23:22:15.163Z,-0.32
2023-01-18T23:24:45.530Z,-0.38
2023-01-18T23:27:18.439Z,-0.43
2023-01-18T23:29:49.815Z,-0.39
2023-01-18T23:32:20.527Z,-0.31
2023-01-18T23:34:50.878Z,-0.26
2023-01-18T23:37:21.209Z,-0.21
2023-01-18T23:40:03.923Z,-0.23
2023-01-18T23:42:49.879Z,-0.27
2023-01-18T23:45:32.648Z,-0.25
2023-01-18T23:48:22.586Z,-0.27
2023-01-18T23:51:05.233Z,-0.30
2023-01-18T23:53:47.864Z,-0.38
2023-01-18T23:56:18.153Z,-0.52
2023-01-18T23:58:51.482Z,-0.54
